createdAt,value
2023-02-12T00:00:26.819Z,49.30
2023-02-12T00:00:59.248Z,48.80
2023-02-12T00:01:31.782Z,44.70
2023-02-12T00:02:04.254Z,44.90
2023-02-12T00:02:36.699Z,48.00
2023-02-12T00:03:09.216Z,43.20
2023-02-12T00:03:41.745Z,49.60
2023-02-12T00:04:14.113Z,49.40
2023-02-12T00:04:46.597Z,52.70
2023-02-12T00:05:19.100Z,54.50
2023-02-12T00:05:51.528Z,45.50
2023-02-12T00:06:24.003Z,40.80
2023-02-12T00:06:56.583Z,46.10
2023-02-12T00:07:29.060Z,45.60
2023-02-12T00:08:01.512Z,43.50
2023-02-12T00:08:34.662Z,43.10
2023-02-12T00:09:07.116Z,41.60
2023-02-12T00:09:39.592Z,44.50
2023-02-12T00:10:12.038Z,46.20
2023-02-12T00:10:44.551Z,41.50
2023-02-12T00:11:17.060Z,39.40
2023-02-12T00:11:49.569Z,42.60
2023-02-12T00:12:22.030Z,44.20
2023-02-12T00:12:54.469Z,43.00
2023-02-12T00:13:27.152Z,50.90
2023-02-12T00:13:59.585Z,50.20
2023-02-12T00:14:32.047Z,39.90
2023-02-12T00:15:04.534Z,48.70
2023-02-12T00:15:37.101Z,52.40
2023-02-12T00:16:09.641Z,45.60
2023-02-12T00:16:42.061Z,48.10
2023-02-12T00:17:14.525Z,47.50
2023-02-12T00:17:47.046Z,44.10
2023-02-12T00:18:19.646Z,49.70
2023-02-12T00:18:52.140Z,56.00
2023-02-12T00:19:24.612Z,47.20
2023-02-12T00:19:57.106Z,45.00
2023-02-12T00:20:29.565Z,50.60
2023-02-12T00:21:02.117Z,52.40
2023-02-12T00:21:34.573Z,48.50
2023-02-12T00:22:07.042Z,44.70
2023-02-12T00:22:39.514Z,41.10
2023-02-12T00:23:12.061Z,41.20
2023-02-12T00:23:44.805Z,42.80
2023-02-12T00:24:17.288Z,46.00
2023-02-12T00:24:50.017Z,47.40
2023-02-12T00:25:22.508Z,40.90
2023-02-12T00:25:55.309Z,39.80
2023-02-12T00:26:27.504Z,41.00
2023-02-12T00:27:00.144Z,40.30
2023-02-12T00:27:32.625Z,40.80
2023-02-12T00:28:05.148Z,40.00
2023-02-12T00:28:37.571Z,40.60
2023-02-12T00:29:09.991Z,39.10
2023-02-12T00:29:42.613Z,38.90
2023-02-12T00:30:15.104Z,41.80
2023-02-12T00:30:47.622Z,35.80
2023-02-12T00:31:20.317Z,41.40
2023-02-12T00:31:52.706Z,42.60
2023-02-12T00:32:25.112Z,43.40
2023-02-12T00:32:57.556Z,44.70
2023-02-12T00:33:30.040Z,51.80
2023-02-12T00:34:02.509Z,51.30
2023-02-12T00:34:34.973Z,42.70
2023-02-12T00:35:07.428Z,38.20
2023-02-12T00:35:39.953Z,40.10
2023-02-12T00:36:12.440Z,45.80
2023-02-12T00:36:44.945Z,44.60
2023-02-12T00:37:17.386Z,44.70
2023-02-12T00:37:49.887Z,41.30
2023-02-12T00:38:22.305Z,43.80
2023-02-12T00:38:54.767Z,45.90
2023-02-12T00:39:27.277Z,41.60
2023-02-12T00:39:59.773Z,46.20
2023-02-12T00:40:32.243Z,46.30
2023-02-12T00:41:04.722Z,44.80
2023-02-12T00:41:37.155Z,42.20
2023-02-12T00:42:09.609Z,46.30
2023-02-12T00:42:42.041Z,44.10
2023-02-12T00:43:14.514Z,39.70
2023-02-12T00:43:46.982Z,41.10
2023-02-12T00:44:19.495Z,44.00
2023-02-12T00:44:51.924Z,44.80
2023-02-12T00:45:24.372Z,40.50
2023-02-12T00:45:57.108Z,40.70
2023-02-12T00:46:29.404Z,45.50
2023-02-12T00:47:01.777Z,44.70
2023-02-12T00:47:34.234Z,42.80
2023-02-12T00:48:06.683Z,41.20
2023-02-12T00:48:39.129Z,46.30
2023-02-12T00:49:11.594Z,45.60
2023-02-12T00:49:44.136Z,46.10
2023-02-12T00:50:16.640Z,52.50
2023-02-12T00:50:49.087Z,49.50
2023-02-12T00:51:21.542Z,47.70
2023-02-12T00:51:54.023Z,49.00
2023-02-12T00:52:26.572Z,46.70
2023-02-12T00:52:59.012Z,43.40
2023-02-12T00:53:31.534Z,43.80
2023-02-12T00:54:04.024Z,44.70
2023-02-12T00:54:36.527Z,48.90
2023-02-12T00:55:08.981Z,46.90
2023-02-12T00:55:41.451Z,49.70
2023-02-12T00:56:13.906Z,47.80
2023-02-12T00:56:46.420Z,45.80
2023-02-12T00:57:18.892Z,44.10
2023-02-12T00:57:51.382Z,45.00
2023-02-12T00:58:23.931Z,48.10
2023-02-12T00:58:56.418Z,50.00
2023-02-12T00:59:28.858Z,48.70
2023-02-12T01:00:01.348Z,47.80
2023-02-12T01:00:33.992Z,41.90
2023-02-12T01:01:06.517Z,39.90
2023-02-12T01:01:38.933Z,37.20
2023-02-12T01:02:11.370Z,41.40
2023-02-12T01:02:44.220Z,48.20
2023-02-12T01:03:16.711Z,39.30
2023-02-12T01:03:49.262Z,35.30
2023-02-12T01:04:21.650Z,34.90
2023-02-12T01:04:54.158Z,36.70
2023-02-12T01:05:26.631Z,44.60
2023-02-12T01:05:59.112Z,48.70
2023-02-12T01:06:31.583Z,44.70
2023-02-12T01:07:04.032Z,47.80
2023-02-12T01:07:36.496Z,52.40
2023-02-12T01:08:09.014Z,48.90
2023-02-12T01:08:41.454Z,48.90
2023-02-12T01:09:13.938Z,48.70
2023-02-12T01:09:46.402Z,45.30
2023-02-12T01:10:18.842Z,41.10
2023-02-12T01:10:51.306Z,39.70
2023-02-12T01:11:23.771Z,41.70
2023-02-12T01:11:56.322Z,38.80
2023-02-12T01:12:28.781Z,42.00
2023-02-12T01:13:01.236Z,44.40
2023-02-12T01:13:33.744Z,43.90
2023-02-12T01:14:06.184Z,45.80
2023-02-12T01:14:38.655Z,47.40
2023-02-12T01:15:11.272Z,47.70
2023-02-12T01:15:43.791Z,44.90
2023-02-12T01:16:16.251Z,38.00
2023-02-12T01:16:48.682Z,41.40
2023-02-12T01:17:21.174Z,48.30
2023-02-12T01:17:53.717Z,43.80
2023-02-12T01:18:26.157Z,43.60
2023-02-12T01:18:58.605Z,43.90
2023-02-12T01:19:31.022Z,39.40
2023-02-12T01:20:03.474Z,42.20
2023-02-12T01:20:35.941Z,40.70
2023-02-12T01:21:08.368Z,39.10
2023-02-12T01:21:40.813Z,40.30
2023-02-12T01:22:13.324Z,40.90
2023-02-12T01:22:45.767Z,42.70
2023-02-12T01:23:18.175Z,44.50
2023-02-12T01:23:50.640Z,42.10
2023-02-12T01:24:23.070Z,40.60
2023-02-12T01:24:55.599Z,42.00
2023-02-12T01:25:28.033Z,41.00
2023-02-12T01:26:00.461Z,45.00
2023-02-12T01:26:32.928Z,46.60
2023-02-12T01:27:05.372Z,43.00
2023-02-12T01:27:37.814Z,43.50
2023-02-12T01:28:10.357Z,42.50
2023-02-12T01:28:42.734Z,49.80
2023-02-12T01:29:15.163Z,52.90
2023-02-12T01:29:47.601Z,43.00
2023-02-12T01:30:20.116Z,38.00
2023-02-12T01:30:52.658Z,39.60
2023-02-12T01:31:25.126Z,38.60
2023-02-12T01:31:57.518Z,38.00
2023-02-12T01:32:29.878Z,39.30
2023-02-12T01:33:02.308Z,45.00
2023-02-12T01:33:34.747Z,48.80
2023-02-12T01:34:07.197Z,42.80
2023-02-12T01:34:39.688Z,38.80
2023-02-12T01:35:12.152Z,40.20
2023-02-12T01:35:44.617Z,43.90
2023-02-12T01:36:17.104Z,49.00
2023-02-12T01:36:49.548Z,46.60
2023-02-12T01:37:22.038Z,43.00
2023-02-12T01:37:55.704Z,44.90
2023-02-12T01:38:26.969Z,46.50
2023-02-12T01:38:59.415Z,49.50
2023-02-12T01:39:31.835Z,50.30
2023-02-12T01:40:04.313Z,47.80
2023-02-12T01:40:36.779Z,49.50
2023-02-12T01:41:09.342Z,43.00
2023-02-12T01:41:41.747Z,41.00
2023-02-12T01:42:14.181Z,42.10
2023-02-12T01:42:46.621Z,37.30
2023-02-12T01:43:19.092Z,37.70
2023-02-12T01:43:51.531Z,41.10
2023-02-12T01:44:23.993Z,42.10
2023-02-12T01:44:56.453Z,40.10
2023-02-12T01:45:28.903Z,35.80
2023-02-12T01:46:01.328Z,36.60
2023-02-12T01:46:33.850Z,41.50
2023-02-12T01:47:06.290Z,43.40
2023-02-12T01:47:38.802Z,44.10
2023-02-12T01:48:11.259Z,47.00
2023-02-12T01:48:43.740Z,41.40
2023-02-12T01:49:16.191Z,40.00
2023-02-12T01:49:48.649Z,46.80
2023-02-12T01:50:21.117Z,44.00
2023-02-12T01:50:53.572Z,42.00
2023-02-12T01:51:26.039Z,42.90
2023-02-12T01:51:58.518Z,41.40
2023-02-12T01:52:30.963Z,35.30
2023-02-12T01:53:03.405Z,36.70
2023-02-12T01:53:35.887Z,49.00
2023-02-12T01:54:08.351Z,50.40
2023-02-12T01:54:40.789Z,50.30
2023-02-12T01:55:13.255Z,46.70
2023-02-12T01:55:45.755Z,43.20
2023-02-12T01:56:18.205Z,41.00
2023-02-12T01:56:50.713Z,41.10
2023-02-12T01:57:23.178Z,40.40
2023-02-12T01:57:55.666Z,39.20
2023-02-12T01:58:28.111Z,46.40
2023-02-12T01:59:00.563Z,43.30
2023-02-12T01:59:33.031Z,39.10
2023-02-12T02:00:05.502Z,42.80
2023-02-12T02:00:37.929Z,44.00
2023-02-12T02:01:10.486Z,42.80
2023-02-12T02:01:42.993Z,42.30
2023-02-12T02:02:15.510Z,41.10
2023-02-12T02:02:47.983Z,44.80
2023-02-12T02:03:20.441Z,45.60
2023-02-12T02:03:52.897Z,49.30
2023-02-12T02:04:25.365Z,48.10
2023-02-12T02:04:57.795Z,44.80
2023-02-12T02:05:30.266Z,44.80
2023-02-12T02:06:02.712Z,49.40
2023-02-12T02:06:35.179Z,45.40
2023-02-12T02:07:07.706Z,40.40
2023-02-12T02:07:40.189Z,40.20
2023-02-12T02:08:12.654Z,40.10
2023-02-12T02:08:45.111Z,42.20
2023-02-12T02:09:17.550Z,43.80
2023-02-12T02:09:50.087Z,41.40
2023-02-12T02:10:22.520Z,38.80
2023-02-12T02:10:54.992Z,40.20
2023-02-12T02:11:27.460Z,45.40
2023-02-12T02:11:59.926Z,43.60
2023-02-12T02:12:32.395Z,41.40
2023-02-12T02:13:04.917Z,46.30
2023-02-12T02:13:37.367Z,47.60
2023-02-12T02:14:09.866Z,48.60
2023-02-12T02:14:42.310Z,46.50
2023-02-12T02:15:14.765Z,45.70
2023-02-12T02:15:47.295Z,45.00
2023-02-12T02:16:19.798Z,41.70
2023-02-12T02:16:52.183Z,48.80
2023-02-12T02:17:24.733Z,46.20
2023-02-12T02:17:57.220Z,39.80
2023-02-12T02:18:29.699Z,43.40
2023-02-12T02:19:02.181Z,47.30
2023-02-12T02:19:34.606Z,45.20
2023-02-12T02:20:07.066Z,39.10
2023-02-12T02:20:39.529Z,40.90
2023-02-12T02:21:12.077Z,42.50
2023-02-12T02:21:44.626Z,42.80
2023-02-12T02:22:17.096Z,40.50
2023-02-12T02:22:49.587Z,47.40
2023-02-12T02:23:22.052Z,43.70
2023-02-12T02:23:54.642Z,37.60
2023-02-12T02:24:27.129Z,41.30
2023-02-12T02:24:59.624Z,38.30
2023-02-12T02:25:32.183Z,38.50
2023-02-12T02:26:04.720Z,41.40
2023-02-12T02:26:37.228Z,39.90
2023-02-12T02:27:09.714Z,39.90
2023-02-12T02:27:42.181Z,43.90
2023-02-12T02:28:14.648Z,43.60
2023-02-12T02:28:47.073Z,42.10
2023-02-12T02:29:19.618Z,38.10
2023-02-12T02:29:52.076Z,37.40
2023-02-12T02:30:24.555Z,36.70
2023-02-12T02:30:57.153Z,41.70
2023-02-12T02:31:29.761Z,42.70
2023-02-12T02:32:02.060Z,44.00
2023-02-12T02:32:35.235Z,47.10
2023-02-12T02:33:07.687Z,46.10
2023-02-12T02:33:40.161Z,47.20
2023-02-12T02:34:12.637Z,40.10
2023-02-12T02:34:45.105Z,44.60
2023-02-12T02:35:17.625Z,49.10
2023-02-12T02:35:50.114Z,40.30
2023-02-12T02:36:24.177Z,42.10
2023-02-12T02:37:00.821Z,49.10
2023-02-12T02:37:27.526Z,43.50
2023-02-12T02:38:00.042Z,38.10
2023-02-12T02:38:39.595Z,36.40
2023-02-12T02:39:12.075Z,36.50
2023-02-12T02:39:44.481Z,41.20
2023-02-12T02:40:16.954Z,40.40
2023-02-12T02:40:49.424Z,41.30
2023-02-12T02:41:21.863Z,43.20
2023-02-12T02:41:54.350Z,43.10
2023-02-12T02:42:26.890Z,40.20
2023-02-12T02:42:59.377Z,41.10
2023-02-12T02:43:31.918Z,40.30
2023-02-12T02:44:04.307Z,42.10
2023-02-12T02:44:36.746Z,45.30
2023-02-12T02:45:09.275Z,44.30
2023-02-12T02:45:41.704Z,44.50
2023-02-12T02:46:14.227Z,40.20
2023-02-12T02:46:46.684Z,40.30
2023-02-12T02:47:19.040Z,41.40
2023-02-12T02:47:51.503Z,39.70
2023-02-12T02:48:23.946Z,44.00
2023-02-12T02:48:56.438Z,42.40
2023-02-12T02:49:28.899Z,41.10
2023-02-12T02:50:01.363Z,41.90
2023-02-12T02:50:33.818Z,40.80
2023-02-12T02:51:06.337Z,40.80
2023-02-12T02:51:38.766Z,40.80
2023-02-12T02:52:11.309Z,40.10
2023-02-12T02:52:43.919Z,38.60
2023-02-12T02:53:23.866Z,41.70
2023-02-12T02:53:57.187Z,39.80
2023-02-12T02:54:30.432Z,34.80
2023-02-12T02:55:02.896Z,37.90
2023-02-12T02:55:35.407Z,44.80
2023-02-12T02:56:07.910Z,40.80
2023-02-12T02:56:40.439Z,34.30
2023-02-12T02:57:12.906Z,34.10
2023-02-12T02:57:45.363Z,37.00
2023-02-12T02:58:17.821Z,43.90
2023-02-12T02:58:50.288Z,42.70
2023-02-12T02:59:22.726Z,41.70
2023-02-12T02:59:55.213Z,37.20
2023-02-12T03:00:27.637Z,37.50
2023-02-12T03:01:00.190Z,37.20
2023-02-12T03:01:32.540Z,38.70
2023-02-12T03:02:04.967Z,39.40
2023-02-12T03:02:37.519Z,37.60
2023-02-12T03:03:09.966Z,36.10
2023-02-12T03:03:42.345Z,38.90
2023-02-12T03:04:14.783Z,36.30
2023-02-12T03:04:47.297Z,36.50
2023-02-12T03:05:19.852Z,37.90
2023-02-12T03:05:52.342Z,42.50
2023-02-12T03:06:24.879Z,41.90
2023-02-12T03:06:57.347Z,42.00
2023-02-12T03:07:29.769Z,51.40
2023-02-12T03:08:02.737Z,47.30
2023-02-12T03:08:35.165Z,41.90
2023-02-12T03:09:07.603Z,47.40
2023-02-12T03:09:40.065Z,41.20
2023-02-12T03:10:12.495Z,38.20
2023-02-12T03:10:44.996Z,40.00
2023-02-12T03:11:17.514Z,38.80
2023-02-12T03:11:49.984Z,40.80
2023-02-12T03:12:22.441Z,39.90
2023-02-12T03:12:54.882Z,40.20
2023-02-12T03:13:27.366Z,40.60
2023-02-12T03:13:59.843Z,43.40
2023-02-12T03:14:32.301Z,43.40
2023-02-12T03:15:04.807Z,39.60
2023-02-12T03:15:37.261Z,34.20
2023-02-12T03:16:09.722Z,32.50
2023-02-12T03:16:42.303Z,38.10
2023-02-12T03:17:14.700Z,47.40
2023-02-12T03:17:47.189Z,41.60
2023-02-12T03:18:19.632Z,40.20
2023-02-12T03:18:52.843Z,52.00
2023-02-12T03:19:26.178Z,53.60
2023-02-12T03:19:58.632Z,41.20
2023-02-12T03:20:31.212Z,34.30
2023-02-12T03:21:03.690Z,34.60
2023-02-12T03:21:36.155Z,41.10
2023-02-12T03:22:08.602Z,43.50
2023-02-12T03:22:41.217Z,44.70
2023-02-12T03:23:13.662Z,41.80
2023-02-12T03:23:46.110Z,39.30
2023-02-12T03:24:18.579Z,42.70
2023-02-12T03:24:51.065Z,44.60
2023-02-12T03:25:23.560Z,38.80
2023-02-12T03:25:56.369Z,39.40
2023-02-12T03:26:28.457Z,45.90
2023-02-12T03:27:00.999Z,45.20
2023-02-12T03:27:33.474Z,40.70
2023-02-12T03:28:06.024Z,41.90
2023-02-12T03:28:38.523Z,45.00
2023-02-12T03:29:10.973Z,39.60
2023-02-12T03:29:43.439Z,36.20
2023-02-12T03:30:15.872Z,43.20
2023-02-12T03:30:48.360Z,44.30
2023-02-12T03:31:20.915Z,38.20
2023-02-12T03:31:53.438Z,37.60
2023-02-12T03:32:25.857Z,31.60
2023-02-12T03:32:58.964Z,34.50
2023-02-12T03:33:31.408Z,36.40
2023-02-12T03:34:03.870Z,39.00
2023-02-12T03:34:36.300Z,38.70
2023-02-12T03:35:08.916Z,38.00
2023-02-12T03:35:41.437Z,39.80
2023-02-12T03:36:14.006Z,36.50
2023-02-12T03:36:46.434Z,38.80
2023-02-12T03:37:19.016Z,41.50
2023-02-12T03:37:51.501Z,39.40
2023-02-12T03:38:24.053Z,41.30
2023-02-12T03:38:56.488Z,38.60
2023-02-12T03:39:28.946Z,33.90
2023-02-12T03:40:01.392Z,32.60
2023-02-12T03:40:33.844Z,36.50
2023-02-12T03:41:06.296Z,39.20
2023-02-12T03:41:38.760Z,39.60
2023-02-12T03:42:11.269Z,41.50
2023-02-12T03:42:43.755Z,42.90
2023-02-12T03:43:16.189Z,43.50
2023-02-12T03:43:48.632Z,42.70
2023-02-12T03:44:21.117Z,41.00
2023-02-12T03:44:53.558Z,40.90
2023-02-12T03:45:25.985Z,41.90
2023-02-12T03:45:58.724Z,37.10
2023-02-12T03:46:30.874Z,36.90
2023-02-12T03:47:03.346Z,37.20
2023-02-12T03:47:35.935Z,36.10
2023-02-12T03:48:09.235Z,38.10
2023-02-12T03:48:41.648Z,36.50
2023-02-12T03:49:14.132Z,38.10
2023-02-12T03:49:46.704Z,38.20
2023-02-12T03:50:19.148Z,39.90
2023-02-12T03:50:51.784Z,40.00
2023-02-12T03:51:24.235Z,37.80
2023-02-12T03:51:57.444Z,43.40
2023-02-12T03:52:29.905Z,40.80
2023-02-12T03:53:02.341Z,36.00
2023-02-12T03:53:34.848Z,37.90
2023-02-12T03:54:07.441Z,40.10
2023-02-12T03:54:39.890Z,41.80
2023-02-12T03:55:12.354Z,38.90
2023-02-12T03:55:44.904Z,38.10
2023-02-12T03:56:17.332Z,46.10
2023-02-12T03:56:49.805Z,42.80
2023-02-12T03:57:22.300Z,43.10
2023-02-12T03:57:54.728Z,45.30
2023-02-12T03:58:27.208Z,41.80
2023-02-12T03:58:59.679Z,43.90
2023-02-12T03:59:32.253Z,41.10
2023-02-12T04:00:04.722Z,34.20
2023-02-12T04:00:37.259Z,43.10
2023-02-12T04:01:09.911Z,39.70
2023-02-12T04:01:42.317Z,40.90
2023-02-12T04:02:14.708Z,43.50
2023-02-12T04:02:47.100Z,41.70
2023-02-12T04:03:19.564Z,39.20
2023-02-12T04:03:52.058Z,37.10
2023-02-12T04:04:24.552Z,46.90
2023-02-12T04:04:56.920Z,48.10
2023-02-12T04:05:29.341Z,42.80
2023-02-12T04:06:01.767Z,44.80
2023-02-12T04:06:34.223Z,37.70
2023-02-12T04:07:06.675Z,37.90
2023-02-12T04:07:39.171Z,41.20
2023-02-12T04:08:11.777Z,35.40
2023-02-12T04:08:44.296Z,33.70
2023-02-12T04:09:16.806Z,37.20
2023-02-12T04:09:49.388Z,37.50
2023-02-12T04:10:21.846Z,35.80
2023-02-12T04:10:54.340Z,37.20
2023-02-12T04:11:26.844Z,35.50
2023-02-12T04:11:59.282Z,42.00
2023-02-12T04:12:31.881Z,46.10
2023-02-12T04:13:04.364Z,42.80
2023-02-12T04:13:36.794Z,42.60
2023-02-12T04:14:09.248Z,39.10
2023-02-12T04:14:41.788Z,40.30
2023-02-12T04:15:14.257Z,42.90
2023-02-12T04:15:46.997Z,40.50
2023-02-12T04:16:19.564Z,42.40
2023-02-12T04:16:52.155Z,42.30
2023-02-12T04:17:24.587Z,41.90
2023-02-12T04:17:57.053Z,36.60
2023-02-12T04:18:29.454Z,35.10
2023-02-12T04:19:01.942Z,35.80
2023-02-12T04:19:34.381Z,37.80
2023-02-12T04:20:06.811Z,40.20
2023-02-12T04:20:39.230Z,40.90
2023-02-12T04:21:11.741Z,40.50
2023-02-12T04:21:44.185Z,45.60
2023-02-12T04:22:16.698Z,43.50
2023-02-12T04:22:49.147Z,37.20
2023-02-12T04:23:21.609Z,34.70
2023-02-12T04:23:54.047Z,36.20
2023-02-12T04:24:26.496Z,39.20
2023-02-12T04:24:58.939Z,43.90
2023-02-12T04:25:31.420Z,44.70
2023-02-12T04:26:03.907Z,38.30
2023-02-12T04:26:36.374Z,40.60
2023-02-12T04:27:09.106Z,46.10
2023-02-12T04:27:41.616Z,42.40
2023-02-12T04:28:14.105Z,40.20
2023-02-12T04:28:46.511Z,45.00
2023-02-12T04:29:18.979Z,38.20
2023-02-12T04:29:51.467Z,35.70
2023-02-12T04:30:24.060Z,38.90
2023-02-12T04:30:56.426Z,41.80
2023-02-12T04:31:28.898Z,41.20
2023-02-12T04:32:01.247Z,41.00
2023-02-12T04:32:33.704Z,39.80
2023-02-12T04:33:06.137Z,38.10
2023-02-12T04:33:38.609Z,40.70
2023-02-12T04:34:11.074Z,46.00
2023-02-12T04:34:43.606Z,49.10
2023-02-12T04:35:16.104Z,46.40
2023-02-12T04:35:48.547Z,37.60
2023-02-12T04:36:20.986Z,39.20
2023-02-12T04:36:53.420Z,41.80
2023-02-12T04:37:25.862Z,44.10
2023-02-12T04:37:58.335Z,45.10
2023-02-12T04:38:30.763Z,37.90
2023-02-12T04:39:03.200Z,43.60
2023-02-12T04:39:35.639Z,49.00
2023-02-12T04:40:08.093Z,44.10
2023-02-12T04:40:40.536Z,43.40
2023-02-12T04:41:12.986Z,39.90
2023-02-12T04:41:45.470Z,39.10
2023-02-12T04:42:17.933Z,37.50
2023-02-12T04:42:50.404Z,38.30
2023-02-12T04:43:22.895Z,38.60
2023-02-12T04:43:55.361Z,35.20
2023-02-12T04:44:27.874Z,33.90
2023-02-12T04:45:00.325Z,36.00
2023-02-12T04:45:32.774Z,37.40
2023-02-12T04:46:05.305Z,36.40
2023-02-12T04:46:37.714Z,38.20
2023-02-12T04:47:11.057Z,35.80
2023-02-12T04:47:43.519Z,37.00
2023-02-12T04:48:15.967Z,37.60
2023-02-12T04:48:48.439Z,39.70
2023-02-12T04:49:20.884Z,40.10
2023-02-12T04:49:53.369Z,39.10
2023-02-12T04:50:25.785Z,39.90
2023-02-12T04:50:58.258Z,39.10
2023-02-12T04:51:30.718Z,37.00
2023-02-12T04:52:03.164Z,42.70
2023-02-12T04:52:35.617Z,42.60
2023-02-12T04:53:08.088Z,42.40
2023-02-12T04:53:40.572Z,39.20
2023-02-12T04:54:13.054Z,41.20
2023-02-12T04:54:45.502Z,46.20
2023-02-12T04:55:17.924Z,39.50
2023-02-12T04:55:50.377Z,38.90
2023-02-12T04:56:22.854Z,36.60
2023-02-12T04:56:55.323Z,38.90
2023-02-12T04:57:27.771Z,38.40
2023-02-12T04:58:00.203Z,35.80
2023-02-12T04:58:32.743Z,37.20
2023-02-12T04:59:05.203Z,36.40
2023-02-12T04:59:37.614Z,37.80
2023-02-12T05:00:10.052Z,47.70
2023-02-12T05:00:42.583Z,53.00
2023-02-12T05:01:15.094Z,38.10
2023-02-12T05:01:47.554Z,35.60
2023-02-12T05:02:20.004Z,34.80
2023-02-12T05:02:52.464Z,37.20
2023-02-12T05:03:24.918Z,38.30
2023-02-12T05:03:57.394Z,38.90
2023-02-12T05:04:29.864Z,39.80
2023-02-12T05:05:02.337Z,43.80
2023-02-12T05:05:34.782Z,45.40
2023-02-12T05:06:07.217Z,40.40
2023-02-12T05:06:39.708Z,39.70
2023-02-12T05:07:12.166Z,36.40
2023-02-12T05:07:44.636Z,37.90
2023-02-12T05:08:17.080Z,37.40
2023-02-12T05:08:49.556Z,38.10
2023-02-12T05:09:22.011Z,38.70
2023-02-12T05:09:54.454Z,37.10
2023-02-12T05:10:26.907Z,36.80
2023-02-12T05:10:59.368Z,34.60
2023-02-12T05:11:31.828Z,34.10
2023-02-12T05:12:04.294Z,35.80
2023-02-12T05:12:36.739Z,38.90
2023-02-12T05:13:09.193Z,39.70
2023-02-12T05:13:41.656Z,43.00
2023-02-12T05:14:14.178Z,39.40
2023-02-12T05:14:46.619Z,42.70
2023-02-12T05:15:26.659Z,42.90
2023-02-12T05:15:59.274Z,43.40
2023-02-12T05:16:31.611Z,41.70
2023-02-12T05:17:04.073Z,44.10
2023-02-12T05:17:36.532Z,48.30
2023-02-12T05:18:08.970Z,40.30
2023-02-12T05:18:41.425Z,37.00
2023-02-12T05:19:13.914Z,40.10
2023-02-12T05:19:46.472Z,43.10
2023-02-12T05:20:18.933Z,39.90
2023-02-12T05:20:51.404Z,37.60
2023-02-12T05:21:23.868Z,40.70
2023-02-12T05:21:56.300Z,39.50
2023-02-12T05:22:28.772Z,37.30
2023-02-12T05:23:01.222Z,38.40
2023-02-12T05:23:33.742Z,39.90
2023-02-12T05:24:06.218Z,43.20
2023-02-12T05:24:38.699Z,41.90
2023-02-12T05:25:11.171Z,40.00
2023-02-12T05:25:43.645Z,40.00
2023-02-12T05:26:16.183Z,39.20
2023-02-12T05:26:48.823Z,38.10
2023-02-12T05:27:21.158Z,40.60
2023-02-12T05:27:53.645Z,40.70
2023-02-12T05:28:27.137Z,40.70
2023-02-12T05:28:59.567Z,47.50
2023-02-12T05:29:32.016Z,48.10
2023-02-12T05:30:04.564Z,38.70
2023-02-12T05:30:37.042Z,42.70
2023-02-12T05:31:09.582Z,43.80
2023-02-12T05:31:42.013Z,40.00
2023-02-12T05:32:14.566Z,36.90
2023-02-12T05:32:46.900Z,39.80
2023-02-12T05:33:19.393Z,40.70
2023-02-12T05:33:51.904Z,38.40
2023-02-12T05:34:24.339Z,38.70
2023-02-12T05:34:56.780Z,39.00
2023-02-12T05:35:29.236Z,38.60
2023-02-12T05:36:01.656Z,39.30
2023-02-12T05:36:34.207Z,42.90
2023-02-12T05:37:06.656Z,40.00
2023-02-12T05:37:39.110Z,40.50
2023-02-12T05:38:11.576Z,42.10
2023-02-12T05:38:44.075Z,38.70
2023-02-12T05:39:16.504Z,37.80
2023-02-12T05:39:48.947Z,40.60
2023-02-12T05:40:21.405Z,43.70
2023-02-12T05:40:53.863Z,41.10
2023-02-12T05:41:26.325Z,41.70
2023-02-12T05:41:58.750Z,39.50
2023-02-12T05:42:32.014Z,36.40
2023-02-12T05:43:04.556Z,32.70
2023-02-12T05:43:36.987Z,32.30
2023-02-12T05:44:09.482Z,34.70
2023-02-12T05:44:41.917Z,42.10
2023-02-12T05:45:14.404Z,42.90
2023-02-12T05:45:46.875Z,38.60
2023-02-12T05:46:19.432Z,41.90
2023-02-12T05:46:51.915Z,43.20
2023-02-12T05:47:24.273Z,38.90
2023-02-12T05:47:56.749Z,44.80
2023-02-12T05:48:29.172Z,48.70
2023-02-12T05:49:01.758Z,44.70
2023-02-12T05:49:34.193Z,43.30
2023-02-12T05:50:06.654Z,47.80
2023-02-12T05:50:39.127Z,45.70
2023-02-12T05:51:11.568Z,44.90
2023-02-12T05:51:44.094Z,41.70
2023-02-12T05:52:16.550Z,37.80
2023-02-12T05:52:49.058Z,42.50
2023-02-12T05:53:21.502Z,46.20
2023-02-12T05:53:53.971Z,47.00
2023-02-12T05:54:26.417Z,43.70
2023-02-12T05:54:58.878Z,43.70
2023-02-12T05:55:31.371Z,48.70
2023-02-12T05:56:03.879Z,40.90
2023-02-12T05:56:36.317Z,45.20
2023-02-12T05:57:08.750Z,41.20
2023-02-12T05:57:41.211Z,41.40
2023-02-12T05:58:15.760Z,42.20
2023-02-12T05:58:46.114Z,40.70
2023-02-12T05:59:18.562Z,40.50
2023-02-12T05:59:51.035Z,44.40
2023-02-12T06:00:23.477Z,44.50
2023-02-12T06:00:55.941Z,44.30
2023-02-12T06:01:28.389Z,43.00
2023-02-12T06:02:00.863Z,39.40
2023-02-12T06:02:33.319Z,36.80
2023-02-12T06:03:05.758Z,37.60
2023-02-12T06:03:38.207Z,41.60
2023-02-12T06:04:10.861Z,44.60
2023-02-12T06:04:43.211Z,43.70
2023-02-12T06:05:15.660Z,42.90
2023-02-12T06:05:48.096Z,45.30
2023-02-12T06:06:20.564Z,48.00
2023-02-12T06:06:52.995Z,41.40
2023-02-12T06:07:25.466Z,42.20
2023-02-12T06:07:57.968Z,45.20
2023-02-12T06:08:30.448Z,42.40
2023-02-12T06:09:02.875Z,41.30
2023-02-12T06:09:35.337Z,38.50
2023-02-12T06:10:07.845Z,39.70
2023-02-12T06:10:40.320Z,45.80
2023-02-12T06:11:12.751Z,45.60
2023-02-12T06:11:45.181Z,47.80
2023-02-12T06:12:17.646Z,52.60
2023-02-12T06:12:50.153Z,48.60
2023-02-12T06:13:22.712Z,43.00
2023-02-12T06:13:55.474Z,47.00
2023-02-12T06:14:29.628Z,43.40
2023-02-12T06:15:00.547Z,43.70
2023-02-12T06:15:33.049Z,42.70
2023-02-12T06:16:05.552Z,39.20
2023-02-12T06:16:38.061Z,41.60
2023-02-12T06:17:10.545Z,39.20
2023-02-12T06:17:43.019Z,38.10
2023-02-12T06:18:15.477Z,42.90
2023-02-12T06:18:47.902Z,44.50
2023-02-12T06:19:20.384Z,41.00
2023-02-12T06:19:52.822Z,44.10
2023-02-12T06:20:25.343Z,46.60
2023-02-12T06:20:57.777Z,44.90
2023-02-12T06:21:30.224Z,45.50
2023-02-12T06:22:02.677Z,44.10
2023-02-12T06:22:35.135Z,40.40
2023-02-12T06:23:07.601Z,42.20
2023-02-12T06:23:40.155Z,39.00
2023-02-12T06:24:12.608Z,39.30
2023-02-12T06:24:45.058Z,39.00
2023-02-12T06:25:17.520Z,40.70
2023-02-12T06:25:50.028Z,42.60
2023-02-12T06:26:22.746Z,43.60
2023-02-12T06:26:55.202Z,44.00
2023-02-12T06:27:27.672Z,44.60
2023-02-12T06:28:00.220Z,40.40
2023-02-12T06:28:32.727Z,40.10
2023-02-12T06:29:05.135Z,40.40
2023-02-12T06:29:37.618Z,43.80
2023-02-12T06:30:10.082Z,48.00
2023-02-12T06:30:42.621Z,45.70
2023-02-12T06:31:15.077Z,48.30
2023-02-12T06:31:47.606Z,48.30
2023-02-12T06:32:19.976Z,43.80
2023-02-12T06:32:52.396Z,48.40
2023-02-12T06:33:24.867Z,49.30
2023-02-12T06:33:57.324Z,46.90
2023-02-12T06:34:29.845Z,46.60
2023-02-12T06:35:02.356Z,43.00
2023-02-12T06:35:34.801Z,47.20
2023-02-12T06:36:07.278Z,49.70
2023-02-12T06:36:39.744Z,42.20
2023-02-12T06:37:12.179Z,42.30
2023-02-12T06:37:44.651Z,43.60
2023-02-12T06:38:17.086Z,42.30
2023-02-12T06:38:49.639Z,45.40
2023-02-12T06:39:22.226Z,41.10
2023-02-12T06:39:54.676Z,45.50
2023-02-12T06:40:27.177Z,54.10
2023-02-12T06:40:59.711Z,50.40
2023-02-12T06:41:32.184Z,44.80
2023-02-12T06:42:04.639Z,46.60
2023-02-12T06:42:37.115Z,50.40
2023-02-12T06:43:09.590Z,54.80
2023-02-12T06:43:42.056Z,50.60
2023-02-12T06:44:14.645Z,50.00
2023-02-12T06:44:47.100Z,47.80
2023-02-12T06:45:19.662Z,46.90
2023-02-12T06:45:52.921Z,49.70
2023-02-12T06:46:26.138Z,53.30
2023-02-12T06:46:58.755Z,48.70
2023-02-12T06:47:31.172Z,49.20
2023-02-12T06:48:03.629Z,42.80
2023-02-12T06:48:36.097Z,42.60
2023-02-12T06:49:08.582Z,45.90
2023-02-12T06:49:41.037Z,43.20
2023-02-12T06:50:13.514Z,40.90
2023-02-12T06:50:46.008Z,40.20
2023-02-12T06:51:18.490Z,41.60
2023-02-12T06:51:51.041Z,41.30
2023-02-12T06:52:24.250Z,44.30
2023-02-12T06:52:56.730Z,47.60
2023-02-12T06:53:29.299Z,46.30
2023-02-12T06:54:01.836Z,48.90
2023-02-12T06:54:34.317Z,52.20
2023-02-12T06:55:07.879Z,52.50
2023-02-12T06:55:42.971Z,51.30
2023-02-12T06:56:16.522Z,47.10
2023-02-12T06:56:48.965Z,46.10
2023-02-12T06:57:21.418Z,44.70
2023-02-12T06:57:53.875Z,46.70
2023-02-12T06:58:26.589Z,43.40
2023-02-12T06:58:59.064Z,46.50